sensor_id;sensor_type;location;lat;lon;timestamp;temperature;humidity
44900;DHT22;30628;51.188;6.770;2023-08-06T00:00:27;18.20;99.90
44900;DHT22;30628;51.188;6.770;2023-08-06T00:02:53;18.30;99.90
44900;DHT22;30628;51.188;6.770;2023-08-06T00:05:18;18.30;99.90
44900;DHT22;30628;51.188;6.770;2023-08-06T00:07:47;18.40;99.90
44900;DHT22;30628;51.188;6.770;2023-08-06T00:10:12;18.40;99.90
44900;DHT22;30628;51.188;6.770;2023-08-06T00:12:38;18.40;99.90
44900;DHT22;30628;51.188;6.770;2023-08-06T00:15:04;18.30;99.90
44900;DHT22;30628;51.188;6.770;2023-08-06T00:17:29;18.40;99.90
44900;DHT22;30628;51.188;6.770;2023-08-06T00:19:55;18.60;99.90
44900;DHT22;30628;51.188;6.770;2023-08-06T00:22:21;18.50;99.90
44900;DHT22;30628;51.188;6.770;2023-08-06T00:24:46;18.50;99.90
44900;DHT22;30628;51.188;6.770;2023-08-06T00:27:12;18.50;99.90
44900;DHT22;30628;51.188;6.770;2023-08-06T00:29:37;18.60;99.90
44900;DHT22;30628;51.188;6.770;2023-08-06T00:32:03;18.50;99.90
44900;DHT22;30628;51.188;6.770;2023-08-06T00:34:29;18.40;99.90
44900;DHT22;30628;51.188;6.770;2023-08-06T00:36:54;18.40;99.90
44900;DHT22;30628;51.188;6.770;2023-08-06T00:39:20;18.50;99.90
44900;DHT22;30628;51.188;6.770;2023-08-06T00:41:46;18.60;99.90
44900;DHT22;30628;51.188;6.770;2023-08-06T00:44:11;18.40;99.90
44900;DHT22;30628;51.188;6.770;2023-08-06T00:46:37;18.60;99.90
44900;DHT22;30628;51.188;6.770;2023-08-06T00:49:03;18.50;99.90
44900;DHT22;30628;51.188;6.770;2023-08-06T00:51:30;18.50;99.90
44900;DHT22;30628;51.188;6.770;2023-08-06T00:53:56;18.50;99.90
44900;DHT22;30628;51.188;6.770;2023-08-06T00:56:21;18.60;99.90
44900;DHT22;30628;51.188;6.770;2023-08-06T00:58:47;18.60;99.90
44900;DHT22;30628;51.188;6.770;2023-08-06T01:01:13;18.60;99.90
44900;DHT22;30628;51.188;6.770;2023-08-06T01:03:39;18.50;99.90
44900;DHT22;30628;51.188;6.770;2023-08-06T01:06:05;18.50;99.90
44900;DHT22;30628;51.188;6.770;2023-08-06T01:11:21;18.30;99.90
44900;DHT22;30628;51.188;6.770;2023-08-06T01:13:58;18.40;99.90
44900;DHT22;30628;51.188;6.770;2023-08-06T01:16:25;18.30;99.90
44900;DHT22;30628;51.188;6.770;2023-08-06T01:18:51;18.30;99.90
44900;DHT22;30628;51.188;6.770;2023-08-06T01:21:17;18.40;99.90
44900;DHT22;30628;51.188;6.770;2023-08-06T01:23:43;18.30;99.90
44900;DHT22;30628;51.188;6.770;2023-08-06T01:26:26;18.20;99.90
44900;DHT22;30628;51.188;6.770;2023-08-06T01:29:10;18.20;99.90
44900;DHT22;30628;51.188;6.770;2023-08-06T01:31:38;18.20;99.90
44900;DHT22;30628;51.188;6.770;2023-08-06T01:34:07;18.20;99.90
44900;DHT22;30628;51.188;6.770;2023-08-06T01:36:34;18.20;99.90
44900;DHT22;30628;51.188;6.770;2023-08-06T01:39:00;18.10;99.90
44900;DHT22;30628;51.188;6.770;2023-08-06T01:41:26;18.10;99.90
44900;DHT22;30628;51.188;6.770;2023-08-06T01:43:52;18.10;99.90
44900;DHT22;30628;51.188;6.770;2023-08-06T01:46:17;18.10;99.90
44900;DHT22;30628;51.188;6.770;2023-08-06T01:48:43;18.00;99.90
44900;DHT22;30628;51.188;6.770;2023-08-06T01:51:08;18.00;99.90
44900;DHT22;30628;51.188;6.770;2023-08-06T01:53:34;18.00;99.90
44900;DHT22;30628;51.188;6.770;2023-08-06T01:56:00;18.10;99.90
44900;DHT22;30628;51.188;6.770;2023-08-06T01:58:25;18.10;99.90
44900;DHT22;30628;51.188;6.770;2023-08-06T02:00:51;18.00;99.90
44900;DHT22;30628;51.188;6.770;2023-08-06T02:03:17;18.10;99.90
44900;DHT22;30628;51.188;6.770;2023-08-06T02:05:42;18.00;99.90
44900;DHT22;30628;51.188;6.770;2023-08-06T02:08:08;18.00;99.90
44900;DHT22;30628;51.188;6.770;2023-08-06T02:10:34;18.00;99.90
44900;DHT22;30628;51.188;6.770;2023-08-06T02:12:59;18.00;99.90
44900;DHT22;30628;51.188;6.770;2023-08-06T02:15:25;18.00;99.90
44900;DHT22;30628;51.188;6.770;2023-08-06T02:17:51;18.00;99.90
44900;DHT22;30628;51.188;6.770;2023-08-06T02:20:16;18.10;99.90
44900;DHT22;30628;51.188;6.770;2023-08-06T02:22:42;18.10;99.90
44900;DHT22;30628;51.188;6.770;2023-08-06T02:25:08;18.20;99.90
44900;DHT22;30628;51.188;6.770;2023-08-06T02:27:33;18.20;99.90
44900;DHT22;30628;51.188;6.770;2023-08-06T02:29:59;18.20;99.90
44900;DHT22;30628;51.188;6.770;2023-08-06T02:32:25;18.10;99.90
44900;DHT22;30628;51.188;6.770;2023-08-06T02:34:51;18.10;99.90
44900;DHT22;30628;51.188;6.770;2023-08-06T02:37:16;18.10;99.90
44900;DHT22;30628;51.188;6.770;2023-08-06T02:39:42;18.10;99.90
44900;DHT22;30628;51.188;6.770;2023-08-06T02:42:08;18.20;99.90
44900;DHT22;30628;51.188;6.770;2023-08-06T02:44:34;18.20;99.90
44900;DHT22;30628;51.188;6.770;2023-08-06T02:47:00;18.20;99.90
44900;DHT22;30628;51.188;6.770;2023-08-06T02:49:26;18.30;99.90
44900;DHT22;30628;51.188;6.770;2023-08-06T02:51:52;18.30;99.90
44900;DHT22;30628;51.188;6.770;2023-08-06T02:54:20;18.30;99.90
44900;DHT22;30628;51.188;6.770;2023-08-06T02:56:46;18.30;99.90
44900;DHT22;30628;51.188;6.770;2023-08-06T02:59:12;18.30;99.90
44900;DHT22;30628;51.188;6.770;2023-08-06T03:01:38;18.20;99.90
44900;DHT22;30628;51.188;6.770;2023-08-06T03:04:04;18.30;99.90
44900;DHT22;30628;51.188;6.770;2023-08-06T03:06:30;18.40;99.90
44900;DHT22;30628;51.188;6.770;2023-08-06T03:08:55;18.30;99.90
44900;DHT22;30628;51.188;6.770;2023-08-06T03:11:21;18.30;99.90
44900;DHT22;30628;51.188;6.770;2023-08-06T03:13:47;18.20;99.90
44900;DHT22;30628;51.188;6.770;2023-08-06T03:16:13;18.10;99.90
44900;DHT22;30628;51.188;6.770;2023-08-06T03:18:39;18.10;99.90
44900;DHT22;30628;51.188;6.770;2023-08-06T03:21:04;18.00;99.90
44900;DHT22;30628;51.188;6.770;2023-08-06T03:23:33;18.10;99.90
44900;DHT22;30628;51.188;6.770;2023-08-06T03:26:02;18.10;99.90
44900;DHT22;30628;51.188;6.770;2023-08-06T03:28:28;18.10;99.90
44900;DHT22;30628;51.188;6.770;2023-08-06T03:31:01;18.10;99.90
44900;DHT22;30628;51.188;6.770;2023-08-06T03:33:26;18.20;99.90
44900;DHT22;30628;51.188;6.770;2023-08-06T03:35:52;18.30;99.90
44900;DHT22;30628;51.188;6.770;2023-08-06T03:38:18;18.30;99.90
44900;DHT22;30628;51.188;6.770;2023-08-06T03:40:43;18.20;99.90
44900;DHT22;30628;51.188;6.770;2023-08-06T03:43:09;18.30;99.90
44900;DHT22;30628;51.188;6.770;2023-08-06T03:45:34;18.30;99.90
44900;DHT22;30628;51.188;6.770;2023-08-06T03:48:00;18.30;99.90
44900;DHT22;30628;51.188;6.770;2023-08-06T03:50:26;18.40;99.90
44900;DHT22;30628;51.188;6.770;2023-08-06T03:52:51;18.40;99.90
44900;DHT22;30628;51.188;6.770;2023-08-06T03:55:17;18.20;99.90
44900;DHT22;30628;51.188;6.770;2023-08-06T03:57:42;18.20;99.90
44900;DHT22;30628;51.188;6.770;2023-08-06T04:00:08;18.20;99.90
44900;DHT22;30628;51.188;6.770;2023-08-06T04:02:34;18.20;99.90
44900;DHT22;30628;51.188;6.770;2023-08-06T04:05:00;18.30;99.90
44900;DHT22;30628;51.188;6.770;2023-08-06T04:07:26;18.20;99.90
44900;DHT22;30628;51.188;6.770;2023-08-06T04:09:58;18.20;99.90
44900;DHT22;30628;51.188;6.770;2023-08-06T04:12:24;18.20;99.90
44900;DHT22;30628;51.188;6.770;2023-08-06T04:14:51;18.20;99.90
44900;DHT22;30628;51.188;6.770;2023-08-06T04:17:18;18.20;99.90
44900;DHT22;30628;51.188;6.770;2023-08-06T04:19:54;18.30;99.90
44900;DHT22;30628;51.188;6.770;2023-08-06T04:22:20;18.10;99.90
44900;DHT22;30628;51.188;6.770;2023-08-06T04:24:46;18.10;99.90
44900;DHT22;30628;51.188;6.770;2023-08-06T04:27:12;18.10;99.90
44900;DHT22;30628;51.188;6.770;2023-08-06T04:29:38;18.10;99.90
44900;DHT22;30628;51.188;6.770;2023-08-06T04:32:06;18.20;99.90
44900;DHT22;30628;51.188;6.770;2023-08-06T04:34:32;18.10;99.90
44900;DHT22;30628;51.188;6.770;2023-08-06T04:36:59;18.20;99.90
44900;DHT22;30628;51.188;6.770;2023-08-06T04:39:25;18.10;99.90
44900;DHT22;30628;51.188;6.770;2023-08-06T04:41:50;18.10;99.90
44900;DHT22;30628;51.188;6.770;2023-08-06T04:44:16;18.00;99.90
44900;DHT22;30628;51.188;6.770;2023-08-06T04:46:41;18.00;99.90
44900;DHT22;30628;51.188;6.770;2023-08-06T04:49:07;18.00;99.90
44900;DHT22;30628;51.188;6.770;2023-08-06T04:51:33;18.20;99.90
44900;DHT22;30628;51.188;6.770;2023-08-06T04:53:58;18.20;99.90
44900;DHT22;30628;51.188;6.770;2023-08-06T04:56:24;18.20;99.90
44900;DHT22;30628;51.188;6.770;2023-08-06T04:58:50;18.20;99.90
44900;DHT22;30628;51.188;6.770;2023-08-06T05:01:17;18.10;99.90
44900;DHT22;30628;51.188;6.770;2023-08-06T05:03:42;18.00;99.90
44900;DHT22;30628;51.188;6.770;2023-08-06T05:06:08;18.00;99.90
44900;DHT22;30628;51.188;6.770;2023-08-06T05:08:34;18.00;99.90
44900;DHT22;30628;51.188;6.770;2023-08-06T05:10:59;17.90;99.90
44900;DHT22;30628;51.188;6.770;2023-08-06T05:13:25;17.90;99.90
44900;DHT22;30628;51.188;6.770;2023-08-06T05:15:53;17.80;99.90
44900;DHT22;30628;51.188;6.770;2023-08-06T05:18:18;17.90;99.90
44900;DHT22;30628;51.188;6.770;2023-08-06T05:20:44;18.00;99.90
44900;DHT22;30628;51.188;6.770;2023-08-06T05:23:10;18.00;99.90
44900;DHT22;30628;51.188;6.770;2023-08-06T05:25:36;18.10;99.90
44900;DHT22;30628;51.188;6.770;2023-08-06T05:28:02;18.10;99.90
44900;DHT22;30628;51.188;6.770;2023-08-06T05:30:28;18.10;99.90
44900;DHT22;30628;51.188;6.770;2023-08-06T05:32:54;18.20;99.90
44900;DHT22;30628;51.188;6.770;2023-08-06T05:35:21;18.10;99.90
44900;DHT22;30628;51.188;6.770;2023-08-06T05:37:46;18.00;99.90
44900;DHT22;30628;51.188;6.770;2023-08-06T05:40:12;18.00;99.90
44900;DHT22;30628;51.188;6.770;2023-08-06T05:42:37;18.00;99.90
44900;DHT22;30628;51.188;6.770;2023-08-06T05:45:07;18.00;99.90
44900;DHT22;30628;51.188;6.770;2023-08-06T05:47:32;18.00;99.90
44900;DHT22;30628;51.188;6.770;2023-08-06T05:49:58;18.20;99.90
44900;DHT22;30628;51.188;6.770;2023-08-06T05:52:24;18.00;99.90
44900;DHT22;30628;51.188;6.770;2023-08-06T05:54:49;18.00;99.90
44900;DHT22;30628;51.188;6.770;2023-08-06T05:57:15;18.10;99.90
44900;DHT22;30628;51.188;6.770;2023-08-06T05:59:42;18.00;99.90
44900;DHT22;30628;51.188;6.770;2023-08-06T06:02:07;18.00;99.90
44900;DHT22;30628;51.188;6.770;2023-08-06T06:04:33;18.00;99.90
44900;DHT22;30628;51.188;6.770;2023-08-06T06:06:59;18.00;99.90
44900;DHT22;30628;51.188;6.770;2023-08-06T06:09:24;18.10;99.90
44900;DHT22;30628;51.188;6.770;2023-08-06T06:11:50;18.30;99.90
44900;DHT22;30628;51.188;6.770;2023-08-06T06:14:17;18.30;99.90
44900;DHT22;30628;51.188;6.770;2023-08-06T06:16:42;18.40;99.90
44900;DHT22;30628;51.188;6.770;2023-08-06T06:19:08;18.40;99.90
44900;DHT22;30628;51.188;6.770;2023-08-06T06:21:33;18.40;99.90
44900;DHT22;30628;51.188;6.770;2023-08-06T06:24:03;18.50;99.90
44900;DHT22;30628;51.188;6.770;2023-08-06T06:26:30;18.50;99.90
44900;DHT22;30628;51.188;6.770;2023-08-06T06:28:55;18.40;99.90
44900;DHT22;30628;51.188;6.770;2023-08-06T06:31:21;18.40;99.90
44900;DHT22;30628;51.188;6.770;2023-08-06T06:33:46;18.50;99.90
44900;DHT22;30628;51.188;6.770;2023-08-06T06:36:12;18.50;99.90
44900;DHT22;30628;51.188;6.770;2023-08-06T06:38:38;18.60;99.90
44900;DHT22;30628;51.188;6.770;2023-08-06T06:41:04;18.60;99.90
44900;DHT22;30628;51.188;6.770;2023-08-06T06:43:29;18.80;99.90
44900;DHT22;30628;51.188;6.770;2023-08-06T06:45:59;18.80;99.90
44900;DHT22;30628;51.188;6.770;2023-08-06T06:48:44;18.80;99.90
44900;DHT22;30628;51.188;6.770;2023-08-06T06:51:10;18.90;99.90
44900;DHT22;30628;51.188;6.770;2023-08-06T06:53:35;18.90;99.90
44900;DHT22;30628;51.188;6.770;2023-08-06T06:56:02;19.00;99.90
44900;DHT22;30628;51.188;6.770;2023-08-06T06:58:28;18.90;99.90
44900;DHT22;30628;51.188;6.770;2023-08-06T07:00:53;19.00;99.90
44900;DHT22;30628;51.188;6.770;2023-08-06T07:03:22;19.10;99.90
44900;DHT22;30628;51.188;6.770;2023-08-06T07:05:49;19.20;99.90
44900;DHT22;30628;51.188;6.770;2023-08-06T07:08:15;19.20;99.90
44900;DHT22;30628;51.188;6.770;2023-08-06T07:10:41;19.20;99.90
44900;DHT22;30628;51.188;6.770;2023-08-06T07:13:08;19.00;99.90
44900;DHT22;30628;51.188;6.770;2023-08-06T07:15:36;19.00;99.90
44900;DHT22;30628;51.188;6.770;2023-08-06T07:18:02;19.00;99.90
44900;DHT22;30628;51.188;6.770;2023-08-06T07:20:28;19.10;99.90
44900;DHT22;30628;51.188;6.770;2023-08-06T07:22:58;19.10;99.90
44900;DHT22;30628;51.188;6.770;2023-08-06T07:25:24;19.20;99.90
44900;DHT22;30628;51.188;6.770;2023-08-06T07:27:50;19.20;99.90
44900;DHT22;30628;51.188;6.770;2023-08-06T07:30:15;19.30;99.90
44900;DHT22;30628;51.188;6.770;2023-08-06T07:32:41;19.30;99.90
44900;DHT22;30628;51.188;6.770;2023-08-06T07:35:07;19.40;99.90
44900;DHT22;30628;51.188;6.770;2023-08-06T07:37:34;19.50;99.90
44900;DHT22;30628;51.188;6.770;2023-08-06T07:40:00;19.40;99.90
44900;DHT22;30628;51.188;6.770;2023-08-06T07:42:26;19.50;99.90
44900;DHT22;30628;51.188;6.770;2023-08-06T07:44:53;19.50;99.90
44900;DHT22;30628;51.188;6.770;2023-08-06T07:47:20;19.60;99.90
44900;DHT22;30628;51.188;6.770;2023-08-06T07:50:00;19.60;99.90
44900;DHT22;30628;51.188;6.770;2023-08-06T07:52:26;19.50;99.90
44900;DHT22;30628;51.188;6.770;2023-08-06T07:54:51;19.60;99.90
44900;DHT22;30628;51.188;6.770;2023-08-06T07:57:17;19.60;99.90
44900;DHT22;30628;51.188;6.770;2023-08-06T07:59:42;19.60;99.90
44900;DHT22;30628;51.188;6.770;2023-08-06T08:02:08;19.50;99.90
44900;DHT22;30628;51.188;6.770;2023-08-06T08:04:34;19.60;99.90
44900;DHT22;30628;51.188;6.770;2023-08-06T08:06:59;19.60;99.90
44900;DHT22;30628;51.188;6.770;2023-08-06T08:09:25;19.60;99.90
44900;DHT22;30628;51.188;6.770;2023-08-06T08:11:50;19.60;99.90
44900;DHT22;30628;51.188;6.770;2023-08-06T08:14:25;19.60;99.90
44900;DHT22;30628;51.188;6.770;2023-08-06T08:16:51;19.60;99.90
44900;DHT22;30628;51.188;6.770;2023-08-06T08:19:16;19.60;99.90
44900;DHT22;30628;51.188;6.770;2023-08-06T08:21:42;19.60;99.90
44900;DHT22;30628;51.188;6.770;2023-08-06T08:24:08;19.60;99.90
44900;DHT22;30628;51.188;6.770;2023-08-06T08:26:33;19.60;99.90
44900;DHT22;30628;51.188;6.770;2023-08-06T08:28:59;19.60;99.90
44900;DHT22;30628;51.188;6.770;2023-08-06T08:31:24;19.70;99.90
44900;DHT22;30628;51.188;6.770;2023-08-06T08:33:50;19.90;99.90
44900;DHT22;30628;51.188;6.770;2023-08-06T08:36:16;20.00;99.90
44900;DHT22;30628;51.188;6.770;2023-08-06T08:38:41;20.10;99.90
44900;DHT22;30628;51.188;6.770;2023-08-06T08:41:09;20.10;99.90
44900;DHT22;30628;51.188;6.770;2023-08-06T08:43:35;20.20;99.90
44900;DHT22;30628;51.188;6.770;2023-08-06T08:46:02;20.20;99.90
44900;DHT22;30628;51.188;6.770;2023-08-06T08:48:29;20.20;99.90
44900;DHT22;30628;51.188;6.770;2023-08-06T08:50:55;20.20;99.90
44900;DHT22;30628;51.188;6.770;2023-08-06T08:53:21;20.10;99.90
44900;DHT22;30628;51.188;6.770;2023-08-06T08:55:49;20.20;99.90
44900;DHT22;30628;51.188;6.770;2023-08-06T08:58:15;20.10;99.90
44900;DHT22;30628;51.188;6.770;2023-08-06T09:00:46;20.10;99.90
44900;DHT22;30628;51.188;6.770;2023-08-06T09:03:12;20.20;99.90
44900;DHT22;30628;51.188;6.770;2023-08-06T09:05:44;20.40;99.90
44900;DHT22;30628;51.188;6.770;2023-08-06T09:08:11;20.40;99.90
44900;DHT22;30628;51.188;6.770;2023-08-06T09:10:37;20.50;99.90
44900;DHT22;30628;51.188;6.770;2023-08-06T09:13:04;20.60;99.90
44900;DHT22;30628;51.188;6.770;2023-08-06T09:15:30;20.80;99.90
44900;DHT22;30628;51.188;6.770;2023-08-06T09:17:56;20.80;99.90
44900;DHT22;30628;51.188;6.770;2023-08-06T09:20:22;20.90;99.90
44900;DHT22;30628;51.188;6.770;2023-08-06T09:22:48;21.20;99.90
44900;DHT22;30628;51.188;6.770;2023-08-06T09:25:24;21.50;99.90
44900;DHT22;30628;51.188;6.770;2023-08-06T09:27:51;21.80;99.90
44900;DHT22;30628;51.188;6.770;2023-08-06T09:30:30;21.70;99.90
44900;DHT22;30628;51.188;6.770;2023-08-06T09:32:58;21.30;99.90
44900;DHT22;30628;51.188;6.770;2023-08-06T09:35:24;21.00;99.90
44900;DHT22;30628;51.188;6.770;2023-08-06T09:37:50;20.90;99.90
44900;DHT22;30628;51.188;6.770;2023-08-06T09:40:27;20.80;99.90
44900;DHT22;30628;51.188;6.770;2023-08-06T09:42:53;20.50;99.90
44900;DHT22;30628;51.188;6.770;2023-08-06T09:45:19;20.30;99.90
44900;DHT22;30628;51.188;6.770;2023-08-06T09:47:48;20.00;99.90
44900;DHT22;30628;51.188;6.770;2023-08-06T09:50:17;19.80;99.90
44900;DHT22;30628;51.188;6.770;2023-08-06T09:52:52;19.70;99.90
44900;DHT22;30628;51.188;6.770;2023-08-06T09:55:18;19.50;99.90
44900;DHT22;30628;51.188;6.770;2023-08-06T09:57:43;19.50;99.90
44900;DHT22;30628;51.188;6.770;2023-08-06T10:00:10;19.50;99.90
44900;DHT22;30628;51.188;6.770;2023-08-06T10:02:40;19.40;99.90
44900;DHT22;30628;51.188;6.770;2023-08-06T10:05:07;19.20;99.90
44900;DHT22;30628;51.188;6.770;2023-08-06T10:07:33;19.20;99.90
44900;DHT22;30628;51.188;6.770;2023-08-06T10:10:00;19.20;99.90
44900;DHT22;30628;51.188;6.770;2023-08-06T10:12:28;19.20;99.90
44900;DHT22;30628;51.188;6.770;2023-08-06T10:15:06;19.10;99.90
44900;DHT22;30628;51.188;6.770;2023-08-06T10:17:34;18.80;99.90
44900;DHT22;30628;51.188;6.770;2023-08-06T10:20:00;18.80;99.90
44900;DHT22;30628;51.188;6.770;2023-08-06T10:22:26;18.80;99.90
44900;DHT22;30628;51.188;6.770;2023-08-06T10:24:54;18.70;99.90
44900;DHT22;30628;51.188;6.770;2023-08-06T10:27:39;18.70;99.90
44900;DHT22;30628;51.188;6.770;2023-08-06T10:32:53;18.50;99.90
44900;DHT22;30628;51.188;6.770;2023-08-06T10:38:04;18.40;99.90
44900;DHT22;30628;51.188;6.770;2023-08-06T10:40:31;18.40;99.90
44900;DHT22;30628;51.188;6.770;2023-08-06T10:43:01;18.40;99.90
44900;DHT22;30628;51.188;6.770;2023-08-06T10:45:27;18.50;99.90
44900;DHT22;30628;51.188;6.770;2023-08-06T10:47:57;18.40;99.90
44900;DHT22;30628;51.188;6.770;2023-08-06T10:50:23;18.40;99.90
44900;DHT22;30628;51.188;6.770;2023-08-06T10:52:49;18.40;99.90
44900;DHT22;30628;51.188;6.770;2023-08-06T10:55:29;18.40;99.90
44900;DHT22;30628;51.188;6.770;2023-08-06T10:57:55;18.30;99.90
44900;DHT22;30628;51.188;6.770;2023-08-06T11:00:22;18.30;99.90
44900;DHT22;30628;51.188;6.770;2023-08-06T11:02:49;18.30;99.90
44900;DHT22;30628;51.188;6.770;2023-08-06T11:05:15;18.40;99.90
44900;DHT22;30628;51.188;6.770;2023-08-06T11:07:41;18.40;99.90
44900;DHT22;30628;51.188;6.770;2023-08-06T11:10:09;18.50;99.90
44900;DHT22;30628;51.188;6.770;2023-08-06T11:12:36;18.30;99.90
44900;DHT22;30628;51.188;6.770;2023-08-06T11:15:02;18.30;99.90
44900;DHT22;30628;51.188;6.770;2023-08-06T11:17:29;18.40;99.90
44900;DHT22;30628;51.188;6.770;2023-08-06T11:19:55;18.10;99.90
44900;DHT22;30628;51.188;6.770;2023-08-06T11:22:21;17.90;99.90
44900;DHT22;30628;51.188;6.770;2023-08-06T11:24:48;18.00;99.90
44900;DHT22;30628;51.188;6.770;2023-08-06T11:27:30;18.10;99.90
44900;DHT22;30628;51.188;6.770;2023-08-06T11:29:55;17.90;99.90
44900;DHT22;30628;51.188;6.770;2023-08-06T11:32:21;17.80;99.90
44900;DHT22;30628;51.188;6.770;2023-08-06T11:34:47;17.80;99.90
44900;DHT22;30628;51.188;6.770;2023-08-06T11:37:12;17.80;99.90
44900;DHT22;30628;51.188;6.770;2023-08-06T11:39:38;17.80;99.90
44900;DHT22;30628;51.188;6.770;2023-08-06T11:42:07;17.80;99.90
44900;DHT22;30628;51.188;6.770;2023-08-06T11:44:35;17.80;99.90
44900;DHT22;30628;51.188;6.770;2023-08-06T11:47:04;17.70;99.90
44900;DHT22;30628;51.188;6.770;2023-08-06T11:49:48;17.60;99.90
44900;DHT22;30628;51.188;6.770;2023-08-06T11:52:21;17.50;99.90
44900;DHT22;30628;51.188;6.770;2023-08-06T11:57:31;17.60;99.90
44900;DHT22;30628;51.188;6.770;2023-08-06T12:00:09;17.50;99.90
44900;DHT22;30628;51.188;6.770;2023-08-06T12:02:48;17.50;99.90
44900;DHT22;30628;51.188;6.770;2023-08-06T12:05:22;17.40;99.90
44900;DHT22;30628;51.188;6.770;2023-08-06T12:07:53;17.50;99.90
44900;DHT22;30628;51.188;6.770;2023-08-06T12:10:19;17.60;99.90
44900;DHT22;30628;51.188;6.770;2023-08-06T12:12:46;17.60;99.90
44900;DHT22;30628;51.188;6.770;2023-08-06T12:15:12;17.60;99.90
44900;DHT22;30628;51.188;6.770;2023-08-06T12:17:38;17.70;99.90
44900;DHT22;30628;51.188;6.770;2023-08-06T12:20:04;17.80;99.90
44900;DHT22;30628;51.188;6.770;2023-08-06T12:22:31;17.90;99.90
44900;DHT22;30628;51.188;6.770;2023-08-06T12:25:08;17.80;99.90
44900;DHT22;30628;51.188;6.770;2023-08-06T12:27:41;17.80;99.90
44900;DHT22;30628;51.188;6.770;2023-08-06T12:30:07;17.90;99.90
44900;DHT22;30628;51.188;6.770;2023-08-06T12:32:33;17.90;99.90
44900;DHT22;30628;51.188;6.770;2023-08-06T12:34:59;17.80;99.90
44900;DHT22;30628;51.188;6.770;2023-08-06T12:37:25;17.80;99.90
44900;DHT22;30628;51.188;6.770;2023-08-06T12:39:51;17.90;99.90
44900;DHT22;30628;51.188;6.770;2023-08-06T12:42:17;17.90;99.90
44900;DHT22;30628;51.188;6.770;2023-08-06T12:44:43;17.90;99.90
44900;DHT22;30628;51.188;6.770;2023-08-06T12:47:08;18.10;99.90
44900;DHT22;30628;51.188;6.770;2023-08-06T12:49:34;18.10;99.90
44900;DHT22;30628;51.188;6.770;2023-08-06T12:52:00;18.00;99.90
44900;DHT22;30628;51.188;6.770;2023-08-06T12:54:26;18.10;99.90
44900;DHT22;30628;51.188;6.770;2023-08-06T12:56:52;18.10;99.90
44900;DHT22;30628;51.188;6.770;2023-08-06T12:59:18;18.20;99.90
44900;DHT22;30628;51.188;6.770;2023-08-06T13:01:44;18.10;99.90
44900;DHT22;30628;51.188;6.770;2023-08-06T13:04:10;18.10;99.90
44900;DHT22;30628;51.188;6.770;2023-08-06T13:06:37;18.10;99.90
44900;DHT22;30628;51.188;6.770;2023-08-06T13:09:06;18.10;99.90
44900;DHT22;30628;51.188;6.770;2023-08-06T13:11:34;18.10;99.90
44900;DHT22;30628;51.188;6.770;2023-08-06T13:14:08;18.00;99.90
44900;DHT22;30628;51.188;6.770;2023-08-06T13:16:38;18.10;99.90
44900;DHT22;30628;51.188;6.770;2023-08-06T13:19:05;18.10;99.90
44900;DHT22;30628;51.188;6.770;2023-08-06T13:24:01;18.00;99.90
44900;DHT22;30628;51.188;6.770;2023-08-06T13:26:28;18.00;99.90
44900;DHT22;30628;51.188;6.770;2023-08-06T13:28:57;18.10;99.90
44900;DHT22;30628;51.188;6.770;2023-08-06T13:31:32;18.10;99.90
44900;DHT22;30628;51.188;6.770;2023-08-06T13:33:58;18.10;99.90
44900;DHT22;30628;51.188;6.770;2023-08-06T13:36:24;18.10;99.90
44900;DHT22;30628;51.188;6.770;2023-08-06T13:38:50;18.00;99.90
44900;DHT22;30628;51.188;6.770;2023-08-06T13:41:16;18.20;99.90
44900;DHT22;30628;51.188;6.770;2023-08-06T13:43:42;18.20;99.90
44900;DHT22;30628;51.188;6.770;2023-08-06T13:46:09;18.10;99.90
44900;DHT22;30628;51.188;6.770;2023-08-06T13:48:39;18.00;99.90
44900;DHT22;30628;51.188;6.770;2023-08-06T13:51:04;18.00;99.90
44900;DHT22;30628;51.188;6.770;2023-08-06T13:53:30;18.00;99.90
44900;DHT22;30628;51.188;6.770;2023-08-06T13:55:56;18.10;99.90
44900;DHT22;30628;51.188;6.770;2023-08-06T13:58:30;18.10;99.90
44900;DHT22;30628;51.188;6.770;2023-08-06T14:00:55;18.30;99.90
44900;DHT22;30628;51.188;6.770;2023-08-06T14:03:22;18.30;99.90
44900;DHT22;30628;51.188;6.770;2023-08-06T14:05:48;18.40;99.90
44900;DHT22;30628;51.188;6.770;2023-08-06T14:08:14;18.30;99.90
44900;DHT22;30628;51.188;6.770;2023-08-06T14:10:40;18.40;99.90
44900;DHT22;30628;51.188;6.770;2023-08-06T14:13:06;18.40;99.90
44900;DHT22;30628;51.188;6.770;2023-08-06T14:15:31;18.40;99.90
44900;DHT22;30628;51.188;6.770;2023-08-06T14:17:58;18.50;99.90
44900;DHT22;30628;51.188;6.770;2023-08-06T14:20:24;18.60;99.90
44900;DHT22;30628;51.188;6.770;2023-08-06T14:22:49;18.60;99.90
44900;DHT22;30628;51.188;6.770;2023-08-06T14:25:15;18.50;99.90
44900;DHT22;30628;51.188;6.770;2023-08-06T14:27:41;18.50;99.90
44900;DHT22;30628;51.188;6.770;2023-08-06T14:30:07;18.60;99.90
44900;DHT22;30628;51.188;6.770;2023-08-06T14:32:33;18.60;99.90
44900;DHT22;30628;51.188;6.770;2023-08-06T14:34:58;18.50;99.90
44900;DHT22;30628;51.188;6.770;2023-08-06T14:37:24;18.50;99.90
44900;DHT22;30628;51.188;6.770;2023-08-06T14:39:50;18.40;99.90
44900;DHT22;30628;51.188;6.770;2023-08-06T14:42:16;18.60;99.90
44900;DHT22;30628;51.188;6.770;2023-08-06T14:44:42;18.60;99.90
44900;DHT22;30628;51.188;6.770;2023-08-06T14:47:08;18.70;99.90
44900;DHT22;30628;51.188;6.770;2023-08-06T14:49:33;18.70;99.90
44900;DHT22;30628;51.188;6.770;2023-08-06T14:51:59;18.60;99.90
44900;DHT22;30628;51.188;6.770;2023-08-06T14:54:25;18.70;99.90
44900;DHT22;30628;51.188;6.770;2023-08-06T14:56:52;18.70;99.90
44900;DHT22;30628;51.188;6.770;2023-08-06T14:59:17;18.70;99.90
44900;DHT22;30628;51.188;6.770;2023-08-06T15:01:43;18.80;99.90
44900;DHT22;30628;51.188;6.770;2023-08-06T15:04:09;18.70;99.90
44900;DHT22;30628;51.188;6.770;2023-08-06T15:06:34;18.70;99.90
44900;DHT22;30628;51.188;6.770;2023-08-06T15:09:00;18.80;99.90
44900;DHT22;30628;51.188;6.770;2023-08-06T15:11:26;18.80;99.90
44900;DHT22;30628;51.188;6.770;2023-08-06T15:13:52;18.80;99.90
44900;DHT22;30628;51.188;6.770;2023-08-06T15:16:18;18.80;99.90
44900;DHT22;30628;51.188;6.770;2023-08-06T15:18:43;18.80;99.90
44900;DHT22;30628;51.188;6.770;2023-08-06T15:21:10;18.90;99.90
44900;DHT22;30628;51.188;6.770;2023-08-06T15:23:35;18.80;99.90
44900;DHT22;30628;51.188;6.770;2023-08-06T15:26:02;18.90;99.90
44900;DHT22;30628;51.188;6.770;2023-08-06T15:28:28;18.90;99.90
44900;DHT22;30628;51.188;6.770;2023-08-06T15:30:54;18.80;99.90
44900;DHT22;30628;51.188;6.770;2023-08-06T15:33:20;18.90;99.90
44900;DHT22;30628;51.188;6.770;2023-08-06T15:35:47;18.90;99.90
44900;DHT22;30628;51.188;6.770;2023-08-06T15:38:13;18.90;99.90
44900;DHT22;30628;51.188;6.770;2023-08-06T15:40:38;18.90;99.90